MSC Levina — 3FJR8 — position and weather

sailwx.info

Track history (hours):
 
Tides and Currents Weather Stations Pressure Air Temp Water Temp Dewpoint Dewpoint Depression Visibility Wind Speed Wind Dir Waves Ship Positions

MSC Levina

Last reported at 2017-Apr-12 19:23 UTC. Time now 2017-Apr-24 01:26 UTC.
Position N 33°54' E 134°58'.
Warning: this ship's position is 11 days out of date.

Length 227.6 m; beam 32.2 m; draft 12.1 m.

Type: Ship. MMSI: 355609000.

Date/timePositionNaut miles runAvg speedWind from/ knotsBaromVisibWave heightAir tempDewpointWater temp
2017-Apr-12 19:23N 33°54' E 134°58'717.6
2017-Apr-12 19:00N 34°01' E 134°57'917.4
2017-Apr-12 18:30N 34°10' E 134°58'713.3
2017-Apr-12 18:00N 34°16' E 134°58'916.3
2017-Apr-12 17:29N 34°24' E 135°03'919.2
2017-Apr-12 17:00N 34°30' E 135°11'917.6
2017-Apr-12 16:30N 34°38' E 135°16'3 5.3
2017-Apr-12 16:01N 34°40' E 135°14'0 0.0
2017-Apr-12 15:28N 34°40' E 135°14'0 0.0
2017-Apr-12 14:58N 34°40' E 135°14'0 0.0
2017-Apr-12 13:58N 34°40' E 135°14'0 0.0
2017-Apr-12 13:28N 34°40' E 135°14'0 0.0
2017-Apr-12 12:58N 34°40' E 135°14'0 0.0
2017-Apr-12 12:28N 34°40' E 135°14'0 0.0
2017-Apr-12 11:58N 34°40' E 135°14'0 0.0
2017-Apr-12 11:28N 34°40' E 135°14'0 0.0
2017-Apr-12 11:00N 34°40' E 135°14'2 4.0
2017-Apr-12 10:30N 34°39' E 135°16'3 6.8
2017-Apr-12 10:00N 34°37' E 135°13'1 1.9
2017-Apr-12 09:30N 34°37' E 135°11'0 0.1
2017-Apr-12 08:55N 34°37' E 135°11'0 0.1
2017-Apr-12 08:25N 34°37' E 135°11'0 0.1
2017-Apr-12 07:55N 34°37' E 135°12'0 1.1
2017-Apr-12 07:30N 34°37' E 135°12'4 8.5
2017-Apr-12 07:00N 34°38' E 135°17'5 9.7
2017-Apr-12 06:30N 34°38' E 135°23'1 2.0
2017-Apr-12 05:56N 34°39' E 135°24'0 0.0
2017-Apr-12 05:14N 34°39' E 135°24'0 0.0
2017-Apr-12 04:56N 34°39' E 135°24'0 0.0
2017-Apr-12 04:26N 34°39' E 135°24'0 0.0
2017-Apr-12 03:56N 34°39' E 135°24'0 0.0
2017-Apr-12 03:26N 34°39' E 135°24'0 0.0
2017-Apr-12 02:56N 34°39' E 135°24'0 0.0
2017-Apr-12 02:14N 34°39' E 135°24'0 0.0
2017-Apr-12 01:56N 34°39' E 135°24'0 0.0
2017-Apr-12 01:26N 34°39' E 135°24'0 0.0
2017-Apr-12 00:50N 34°39' E 135°24'0 0.0
2017-Apr-12 00:20N 34°39' E 135°24'0 0.0
2017-Apr-11 23:56N 34°39' E 135°24'0 0.0
2017-Apr-11 23:14N 34°39' E 135°24'0 0.0
2017-Apr-11 22:56N 34°39' E 135°24'0 0.0
2017-Apr-11 22:30N 34°39' E 135°24'2 3.8
2017-Apr-11 22:01N 34°38' E 135°22'611.4
2017-Apr-11 21:30N 34°33' E 135°18'815.2
2017-Apr-11 21:00N 34°28' E 135°11'816.4
2017-Apr-11 20:30N 34°22' E 135°05'815.7
2017-Apr-11 20:00N 34°15' E 134°60'612.7
2017-Apr-11 19:30N 34°09' E 134°60'3 6.8
2017-Apr-11 19:00N 34°06' E 134°59'3 6.4
2017-Apr-11 18:30N 34°02' E 134°59'3 6.5
2017-Apr-11 18:00N 33°59' E 134°60'3 4.6
2017-Apr-11 17:26N 33°56' E 134°60'2 4.2
2017-Apr-11 16:57N 33°55' E 134°59'  
Track history (hours):
 
Tides and Currents Weather Stations Pressure Air Temp Water Temp Dewpoint Dewpoint Depression Visibility Wind Speed Wind Dir Waves Ship Positions

MSC Levina

Last reported at 2017-Apr-12 19:23 UTC. Time now 2017-Apr-24 01:26 UTC.
Position N 33°54' E 134°58'.
Warning: this ship's position is 11 days out of date.

Length 227.6 m; beam 32.2 m; draft 12.1 m.

Type: Ship. MMSI: 355609000.

Date/timePositionNaut miles runAvg speedWind from/ knotsBaromVisibWave heightAir tempDewpointWater temp
2017-Apr-12 19:23N 33°54' E 134°58'717.6
2017-Apr-12 19:00N 34°01' E 134°57'917.4
2017-Apr-12 18:30N 34°10' E 134°58'713.3
2017-Apr-12 18:00N 34°16' E 134°58'916.3
2017-Apr-12 17:29N 34°24' E 135°03'919.2
2017-Apr-12 17:00N 34°30' E 135°11'917.6
2017-Apr-12 16:30N 34°38' E 135°16'3 5.3
2017-Apr-12 16:01N 34°40' E 135°14'0 0.0
2017-Apr-12 15:28N 34°40' E 135°14'0 0.0
2017-Apr-12 14:58N 34°40' E 135°14'0 0.0
2017-Apr-12 13:58N 34°40' E 135°14'0 0.0
2017-Apr-12 13:28N 34°40' E 135°14'0 0.0
2017-Apr-12 12:58N 34°40' E 135°14'0 0.0
2017-Apr-12 12:28N 34°40' E 135°14'0 0.0
2017-Apr-12 11:58N 34°40' E 135°14'0 0.0
2017-Apr-12 11:28N 34°40' E 135°14'0 0.0
2017-Apr-12 11:00N 34°40' E 135°14'2 4.0
2017-Apr-12 10:30N 34°39' E 135°16'3 6.8
2017-Apr-12 10:00N 34°37' E 135°13'1 1.9
2017-Apr-12 09:30N 34°37' E 135°11'0 0.1
2017-Apr-12 08:55N 34°37' E 135°11'0 0.1
2017-Apr-12 08:25N 34°37' E 135°11'0 0.1
2017-Apr-12 07:55N 34°37' E 135°12'0 1.1
2017-Apr-12 07:30N 34°37' E 135°12'4 8.5
2017-Apr-12 07:00N 34°38' E 135°17'5 9.7
2017-Apr-12 06:30N 34°38' E 135°23'1 2.0
2017-Apr-12 05:56N 34°39' E 135°24'0 0.0
2017-Apr-12 05:14N 34°39' E 135°24'0 0.0
2017-Apr-12 04:56N 34°39' E 135°24'0 0.0
2017-Apr-12 04:26N 34°39' E 135°24'0 0.0
2017-Apr-12 03:56N 34°39' E 135°24'0 0.0
2017-Apr-12 03:26N 34°39' E 135°24'0 0.0
2017-Apr-12 02:56N 34°39' E 135°24'0 0.0
2017-Apr-12 02:14N 34°39' E 135°24'0 0.0
2017-Apr-12 01:56N 34°39' E 135°24'0 0.0
2017-Apr-12 01:26N 34°39' E 135°24'0 0.0
2017-Apr-12 00:50N 34°39' E 135°24'0 0.0
2017-Apr-12 00:20N 34°39' E 135°24'0 0.0
2017-Apr-11 23:56N 34°39' E 135°24'0 0.0
2017-Apr-11 23:14N 34°39' E 135°24'0 0.0
2017-Apr-11 22:56N 34°39' E 135°24'0 0.0
2017-Apr-11 22:30N 34°39' E 135°24'2 3.8
2017-Apr-11 22:01N 34°38' E 135°22'611.4
2017-Apr-11 21:30N 34°33' E 135°18'815.2
2017-Apr-11 21:00N 34°28' E 135°11'816.4
2017-Apr-11 20:30N 34°22' E 135°05'815.7
2017-Apr-11 20:00N 34°15' E 134°60'612.7
2017-Apr-11 19:30N 34°09' E 134°60'3 6.8
2017-Apr-11 19:00N 34°06' E 134°59'3 6.4
2017-Apr-11 18:30N 34°02' E 134°59'3 6.5
2017-Apr-11 18:00N 33°59' E 134°60'3 4.6
2017-Apr-11 17:26N 33°56' E 134°60'2 4.2
2017-Apr-11 16:57N 33°55' E 134°59'  

Dump ship's entire track history